Terminal Aerodrome Forecast
Issued by NWS Portland, OR

Home | Current Version | Previous Version | Text Only | Print | Product List | Glossary On
Versions: 1 2 3 4 5 6 7 8 9 10 11 12 13 14 15 16 17 18 19 20 21
000
FTUS46 KPQR 250228 CCB
TAFEUG
TAF COR
KEUG 250228Z 2502/2524 35010KT P6SM SCT050 BKN080
     FM250500 27004KT P6SM SCT025
     FM250800 24003KT P6SM BKN025
     FM251800 31005KT P6SM BKN035
     FM252100 33008KT P6SM SCT040=

USA.gov is the U.S. government's official web portal to all federal, state and local government web resources and services.